This is the latest recevied weather packets stored in our database for station/object GW1572. If no packets are shown the sender has not sent any weather packets the latest 10 day(s).
| Time | Temp. | Humidity | Pressure | Rain* | Wind** | Luminosity | Snow |
|---|---|---|---|---|---|---|---|
| 1777934376 | 25° C | 53% | 1000.6 hPa | 0 mm | - | - | - |
| 1777933996 | 25.56° C | 51% | 1000.6 hPa | 0 mm | - | - | - |
| 1777932196 | 25° C | 52% | 1001 hPa | 0 mm | - | - | - |
| 1777929328 | 25° C | 51% | 1001.3 hPa | 0 mm | - | - | - |
| 1777928990 | 25° C | 50% | 1001.3 hPa | 0 mm | - | - | - |
| 1777927172 | 23.33° C | 55% | 1001.3 hPa | 0 mm | - | - | - |
| 1777925741 | 21.67° C | 63% | 1001.3 hPa | 0 mm | - | - | - |
| 1777923577 | 21.11° C | 60% | 1001.6 hPa | 0 mm | - | - | - |
| 1777922842 | 22.22° C | 58% | 1002.3 hPa | 0 mm | - | - | - |
| 1777921789 | 22.22° C | 57% | 1002 hPa | 0 mm | - | - | - |
| 1777921054 | 22.22° C | 55% | 1002 hPa | 0 mm | - | - | - |
| 1777920335 | 23.33° C | 52% | 1002.7 hPa | 0 mm | - | - | - |
| 1777917800 | 22.22° C | 58% | 1002.7 hPa | 0 mm | - | - | - |
| 1777917468 | 22.78° C | 55% | 1002.7 hPa | 0 mm | - | - | - |
| 1777915633 | 22.78° C | 58% | 1002.3 hPa | 0 mm | - | - | - |
| 1777913498 | 21.11° C | 59% | 1003.3 hPa | 0 mm | - | - | - |
| 1777911690 | 20° C | 65% | 1003.7 hPa | 0 mm | - | - | - |
| 1777911312 | 20° C | 66% | 1003.7 hPa | 0 mm | - | - | - |
| 1777910082 | 16.67° C | 74% | 1004.4 hPa | 0 mm | - | - | - |
| 1777908269 | 15.56° C | 75% | 1004.7 hPa | 0 mm | - | - | - |
| 1777907533 | 15° C | 74% | 1005 hPa | 0 mm | - | - | - |
| 1777906483 | 15° C | 74% | 1004.7 hPa | 0 mm | - | - | - |
| 1777903613 | 14.44° C | 72% | 1005 hPa | 0 mm | - | - | - |
| 1777902871 | 15° C | 69% | 1005 hPa | 0 mm | - | - | - |
| 1777902164 | 15° C | 69% | 1005.4 hPa | 0 mm | - | - | - |
* Rain since midnight (hover to see other rain measurements)
** Current wind speed in m/s (hover to see current wind gust speed)